createdAt,value
2022-11-09T00:01:44.913Z,31.30
2022-11-09T00:04:12.374Z,31.90
2022-11-09T00:06:39.478Z,32.30
2022-11-09T00:09:08.442Z,32.70
2022-11-09T00:11:37.467Z,32.50
2022-11-09T00:14:04.720Z,32.50
2022-11-09T00:16:31.737Z,33.00
2022-11-09T00:18:59.295Z,32.80
2022-11-09T00:21:26.350Z,32.50
2022-11-09T00:23:54.038Z,32.60
2022-11-09T00:26:22.055Z,32.40
2022-11-09T00:28:49.723Z,32.10
2022-11-09T00:31:19.185Z,32.40
2022-11-09T00:33:54.037Z,32.00
2022-11-09T00:36:21.879Z,32.00
2022-11-09T00:38:57.425Z,32.00
2022-11-09T00:41:24.877Z,32.10
2022-11-09T00:43:52.297Z,32.90
2022-11-09T00:46:20.374Z,32.50
2022-11-09T00:48:47.769Z,32.50
2022-11-09T00:51:14.980Z,32.80
2022-11-09T00:53:42.880Z,32.80
2022-11-09T00:56:13.419Z,33.20
2022-11-09T00:58:41.182Z,33.50
2022-11-09T01:01:16.784Z,34.00
2022-11-09T01:03:45.279Z,34.00
2022-11-09T01:06:23.451Z,34.10
2022-11-09T01:08:50.908Z,34.40
2022-11-09T01:11:19.627Z,34.70
2022-11-09T01:13:47.203Z,34.80
2022-11-09T01:16:18.636Z,34.90
2022-11-09T01:18:45.822Z,34.80
2022-11-09T01:21:15.529Z,34.70
2022-11-09T01:23:43.604Z,34.00
2022-11-09T01:26:13.503Z,33.80
2022-11-09T01:28:41.045Z,34.20
2022-11-09T01:31:20.006Z,34.40
2022-11-09T01:33:47.431Z,34.10
2022-11-09T01:36:21.965Z,34.00
2022-11-09T01:38:49.266Z,33.90
2022-11-09T01:41:28.566Z,33.20
2022-11-09T01:44:09.260Z,33.20
2022-11-09T01:46:59.800Z,33.50
2022-11-09T01:49:41.125Z,33.90
2022-11-09T01:52:19.639Z,34.00
2022-11-09T01:54:49.323Z,33.80
2022-11-09T01:57:41.484Z,33.60
2022-11-09T02:00:11.679Z,33.90
2022-11-09T02:02:44.207Z,34.50
2022-11-09T02:05:16.784Z,33.90
2022-11-09T02:07:44.681Z,34.00
2022-11-09T02:10:24.202Z,34.00
2022-11-09T02:12:52.852Z,34.00
2022-11-09T02:15:20.878Z,34.30
2022-11-09T02:17:52.733Z,34.40
2022-11-09T02:20:20.531Z,33.80
2022-11-09T02:22:47.509Z,33.60
2022-11-09T02:25:16.354Z,32.90
2022-11-09T02:27:44.171Z,33.50
2022-11-09T02:30:12.306Z,34.50
2022-11-09T02:32:39.346Z,34.80
2022-11-09T02:35:06.585Z,35.00
2022-11-09T02:37:42.283Z,35.30
2022-11-09T02:40:18.127Z,35.60
2022-11-09T02:42:45.358Z,35.50
2022-11-09T02:45:12.829Z,35.30
2022-11-09T02:47:39.780Z,35.10
2022-11-09T02:50:07.004Z,35.20
2022-11-09T02:52:34.042Z,35.30
2022-11-09T02:55:01.089Z,35.00
2022-11-09T02:57:28.088Z,35.00
2022-11-09T02:59:55.243Z,35.20
2022-11-09T03:02:22.346Z,35.10
2022-11-09T03:04:49.301Z,35.10
2022-11-09T03:07:16.345Z,34.60
2022-11-09T03:09:43.365Z,34.60
2022-11-09T03:12:28.627Z,34.00
2022-11-09T03:15:00.336Z,34.30
2022-11-09T03:17:27.893Z,34.10
2022-11-09T03:19:55.575Z,33.70
2022-11-09T03:22:22.523Z,33.70
2022-11-09T03:24:49.552Z,34.20
2022-11-09T03:27:17.001Z,34.10
2022-11-09T03:29:44.107Z,34.10
2022-11-09T03:32:11.844Z,34.30
2022-11-09T03:34:38.800Z,34.30
2022-11-09T03:37:05.780Z,34.20
2022-11-09T03:39:33.649Z,33.70
2022-11-09T03:42:00.638Z,33.70
2022-11-09T03:44:27.649Z,33.90
2022-11-09T03:46:54.651Z,33.90
2022-11-09T03:49:23.908Z,33.70
2022-11-09T03:51:51.694Z,34.00
2022-11-09T03:54:18.788Z,34.10
2022-11-09T03:56:45.940Z,33.80
2022-11-09T03:59:12.877Z,34.20
2022-11-09T04:01:39.926Z,33.70
2022-11-09T04:04:07.010Z,33.70
2022-11-09T04:06:34.032Z,32.80
2022-11-09T04:09:01.046Z,32.90
2022-11-09T04:11:27.993Z,33.00
2022-11-09T04:13:54.954Z,32.90
2022-11-09T04:16:21.960Z,32.50
2022-11-09T04:18:48.875Z,32.80
2022-11-09T04:21:19.171Z,32.90
2022-11-09T04:23:50.027Z,33.10
2022-11-09T04:26:16.986Z,32.30
2022-11-09T04:28:43.970Z,31.80
2022-11-09T04:31:10.943Z,31.70
2022-11-09T04:33:37.896Z,32.20
2022-11-09T04:36:05.632Z,32.30
2022-11-09T04:38:32.937Z,32.60
2022-11-09T04:41:04.585Z,32.90
2022-11-09T04:43:32.112Z,32.50
2022-11-09T04:46:03.148Z,32.50
2022-11-09T04:48:31.589Z,32.90
2022-11-09T04:51:07.829Z,33.20
2022-11-09T04:53:35.678Z,33.90
2022-11-09T04:56:03.149Z,33.80
2022-11-09T04:58:30.467Z,33.60
2022-11-09T05:01:04.258Z,33.40
2022-11-09T05:03:31.316Z,33.50
2022-11-09T05:05:58.382Z,33.00
2022-11-09T05:08:25.744Z,32.70
2022-11-09T05:10:57.752Z,32.70
2022-11-09T05:13:27.073Z,32.50
2022-11-09T05:15:54.027Z,32.50
2022-11-09T05:18:21.015Z,32.70
2022-11-09T05:20:48.478Z,33.10
2022-11-09T05:23:34.011Z,33.10
2022-11-09T05:26:01.223Z,33.50
2022-11-09T05:28:28.163Z,33.80
2022-11-09T05:30:55.129Z,33.80
2022-11-09T05:33:22.431Z,34.30
2022-11-09T05:35:49.576Z,34.30
2022-11-09T05:38:16.563Z,34.40
2022-11-09T05:40:43.581Z,34.00
2022-11-09T05:43:10.545Z,33.70
2022-11-09T05:45:42.450Z,33.50
2022-11-09T05:48:11.099Z,33.60
2022-11-09T05:50:38.910Z,33.30
2022-11-09T05:53:06.212Z,33.70
2022-11-09T05:55:33.695Z,33.50
2022-11-09T05:58:00.951Z,34.00
2022-11-09T06:00:28.460Z,34.00
2022-11-09T06:03:01.511Z,34.00
2022-11-09T06:05:28.443Z,34.50
2022-11-09T06:07:55.404Z,34.00
2022-11-09T06:10:22.375Z,33.90
2022-11-09T06:12:52.331Z,34.10
2022-11-09T06:15:19.280Z,34.20
2022-11-09T06:17:54.725Z,34.00
2022-11-09T06:20:22.857Z,33.60
2022-11-09T06:23:02.741Z,33.50
2022-11-09T06:25:31.999Z,33.50
2022-11-09T06:27:59.188Z,33.60
2022-11-09T06:30:26.225Z,33.50
2022-11-09T06:33:02.474Z,33.10
2022-11-09T06:35:30.076Z,33.20
2022-11-09T06:37:58.835Z,33.50
2022-11-09T06:40:26.492Z,34.00
2022-11-09T06:42:56.016Z,34.30
2022-11-09T06:45:23.076Z,34.40
2022-11-09T06:47:50.049Z,34.70
2022-11-09T06:50:17.093Z,34.80
2022-11-09T06:52:44.187Z,34.40
2022-11-09T06:55:11.128Z,34.30
2022-11-09T06:57:38.181Z,34.20
2022-11-09T07:00:06.387Z,33.90
2022-11-09T07:02:33.744Z,34.30
2022-11-09T07:05:00.695Z,33.80
2022-11-09T07:07:28.469Z,33.30
2022-11-09T07:09:56.024Z,33.50
2022-11-09T07:12:23.012Z,33.30
2022-11-09T07:14:50.189Z,33.10
2022-11-09T07:17:17.249Z,33.40
2022-11-09T07:19:44.299Z,33.20
2022-11-09T07:22:11.256Z,32.50
2022-11-09T07:24:38.190Z,32.70
2022-11-09T07:27:05.195Z,33.10
2022-11-09T07:29:32.174Z,32.80
2022-11-09T07:31:59.124Z,32.40
2022-11-09T07:34:26.142Z,32.20
2022-11-09T07:36:56.225Z,31.60
2022-11-09T07:39:23.520Z,31.40
2022-11-09T07:41:50.815Z,31.80
2022-11-09T07:44:20.733Z,32.80
2022-11-09T07:46:51.066Z,33.10
2022-11-09T07:49:18.421Z,32.10
2022-11-09T07:51:45.352Z,32.00
2022-11-09T07:54:12.397Z,32.60
2022-11-09T07:56:39.505Z,32.90
2022-11-09T07:59:06.571Z,32.80
2022-11-09T08:01:33.651Z,33.20
2022-11-09T08:04:01.471Z,33.40
2022-11-09T08:06:28.720Z,33.20
2022-11-09T08:08:55.855Z,33.00
2022-11-09T08:11:22.801Z,33.20
2022-11-09T08:13:49.842Z,33.30
2022-11-09T08:16:17.315Z,33.20
2022-11-09T08:18:44.518Z,32.80
2022-11-09T08:21:11.576Z,32.50
2022-11-09T08:23:38.576Z,32.90
2022-11-09T08:26:06.903Z,33.20
2022-11-09T08:28:34.893Z,33.30
2022-11-09T08:31:04.406Z,33.50
2022-11-09T08:33:34.006Z,33.80
2022-11-09T08:36:00.982Z,33.40
2022-11-09T08:38:28.209Z,32.70
2022-11-09T08:40:58.884Z,31.90
2022-11-09T08:43:26.284Z,31.40
2022-11-09T08:45:53.933Z,31.70
2022-11-09T08:48:21.243Z,31.90
2022-11-09T08:50:56.585Z,31.50
2022-11-09T08:53:25.017Z,30.90
2022-11-09T08:55:52.370Z,31.70
2022-11-09T08:58:20.653Z,31.30
2022-11-09T09:00:48.181Z,30.70
2022-11-09T09:03:15.249Z,30.50
2022-11-09T09:05:42.245Z,31.20
2022-11-09T09:08:11.694Z,31.20
2022-11-09T09:10:38.846Z,31.10
2022-11-09T09:13:05.921Z,31.20
2022-11-09T09:15:33.346Z,31.40
2022-11-09T09:18:02.435Z,31.50
2022-11-09T09:20:29.525Z,31.70
2022-11-09T09:22:59.722Z,31.40
2022-11-09T09:25:27.774Z,31.30
2022-11-09T09:27:54.864Z,31.50
2022-11-09T09:30:21.805Z,31.80
2022-11-09T09:32:48.935Z,31.40
2022-11-09T09:35:16.142Z,31.90
2022-11-09T09:37:44.675Z,31.70
2022-11-09T09:40:35.113Z,32.50
2022-11-09T09:43:02.420Z,33.10
2022-11-09T09:45:33.462Z,33.30
2022-11-09T09:48:25.519Z,33.50
2022-11-09T09:51:01.555Z,34.00
2022-11-09T09:53:52.220Z,34.00
2022-11-09T09:56:25.490Z,33.60
2022-11-09T09:58:59.821Z,33.80
2022-11-09T10:01:35.644Z,32.90
2022-11-09T10:04:03.090Z,33.00
2022-11-09T10:07:14.861Z,33.30
2022-11-09T10:09:55.267Z,33.30
2022-11-09T10:12:29.272Z,33.10
2022-11-09T10:15:30.032Z,32.70
2022-11-09T10:18:15.630Z,33.50
2022-11-09T10:21:01.142Z,33.00
2022-11-09T10:24:04.967Z,33.30
2022-11-09T10:26:47.574Z,32.10
2022-11-09T10:29:26.813Z,31.40
2022-11-09T10:31:57.950Z,31.50
2022-11-09T10:34:30.467Z,31.50
2022-11-09T10:37:29.525Z,31.10
2022-11-09T10:40:08.808Z,31.90
2022-11-09T10:42:36.269Z,31.70
2022-11-09T10:45:15.289Z,31.60
2022-11-09T10:47:50.066Z,31.30
2022-11-09T10:50:20.197Z,31.20
2022-11-09T10:52:47.818Z,31.10
2022-11-09T10:55:23.613Z,31.20
2022-11-09T10:58:03.583Z,30.80
2022-11-09T11:00:30.808Z,31.40
2022-11-09T11:02:57.949Z,31.10
2022-11-09T11:05:28.386Z,31.40
2022-11-09T11:07:56.115Z,31.20
2022-11-09T11:10:24.339Z,30.60
2022-11-09T11:13:00.591Z,31.00
2022-11-09T11:15:36.963Z,31.80
2022-11-09T11:18:19.675Z,32.30
2022-11-09T11:20:47.682Z,32.30
2022-11-09T11:23:24.500Z,32.30
2022-11-09T11:26:06.714Z,31.90
2022-11-09T11:28:40.837Z,31.20
2022-11-09T11:31:21.989Z,31.10
2022-11-09T11:33:49.672Z,31.10
2022-11-09T11:36:58.022Z,31.10
2022-11-09T11:39:57.564Z,30.40
2022-11-09T11:42:39.913Z,30.50
2022-11-09T11:45:39.592Z,30.60
2022-11-09T11:48:27.249Z,31.10
2022-11-09T11:51:13.165Z,31.00
2022-11-09T11:54:17.647Z,30.90
2022-11-09T11:57:10.718Z,31.70
2022-11-09T11:59:43.398Z,32.60
2022-11-09T12:02:38.844Z,31.90
2022-11-09T12:05:29.648Z,31.10
2022-11-09T12:08:14.996Z,31.30
2022-11-09T12:10:57.066Z,31.80
2022-11-09T12:13:49.498Z,32.20
2022-11-09T12:16:35.627Z,32.10
2022-11-09T12:19:35.785Z,32.20
2022-11-09T12:22:06.023Z,32.40
2022-11-09T12:24:56.669Z,32.20
2022-11-09T12:27:50.671Z,32.50
2022-11-09T12:30:57.072Z,32.40
2022-11-09T12:33:55.026Z,31.60
2022-11-09T12:36:33.216Z,31.90
2022-11-09T12:39:11.825Z,32.30
2022-11-09T12:41:39.964Z,32.30
2022-11-09T12:44:16.920Z,32.30
2022-11-09T12:46:54.342Z,31.70
2022-11-09T12:49:38.906Z,30.90
2022-11-09T12:52:10.868Z,31.00
2022-11-09T12:54:43.029Z,31.30
2022-11-09T12:57:15.205Z,31.40
2022-11-09T12:59:49.008Z,31.30
2022-11-09T13:02:32.532Z,30.40
2022-11-09T13:05:24.516Z,30.90
2022-11-09T13:07:53.628Z,30.50
2022-11-09T13:10:31.482Z,30.50
2022-11-09T13:13:15.084Z,30.90
2022-11-09T13:16:13.306Z,31.00
2022-11-09T13:18:45.153Z,31.80
2022-11-09T13:21:21.892Z,32.10
2022-11-09T13:24:02.910Z,31.90
2022-11-09T13:26:31.451Z,32.10
2022-11-09T13:29:30.380Z,32.80
2022-11-09T13:32:09.164Z,32.60
2022-11-09T13:34:43.429Z,32.80
2022-11-09T13:37:41.466Z,32.90
2022-11-09T13:40:33.183Z,33.30
2022-11-09T13:43:15.907Z,33.50
2022-11-09T13:45:42.833Z,32.30
2022-11-09T13:48:27.345Z,33.00
2022-11-09T13:50:56.860Z,33.00
2022-11-09T13:53:39.048Z,32.40
2022-11-09T13:56:27.223Z,31.90
2022-11-09T13:59:09.970Z,31.90
2022-11-09T14:01:58.201Z,32.70
2022-11-09T14:04:51.455Z,32.80
2022-11-09T14:07:25.512Z,32.80
2022-11-09T14:10:20.029Z,32.20
2022-11-09T14:12:56.024Z,31.90
2022-11-09T14:15:30.151Z,31.60
2022-11-09T14:18:12.614Z,31.80
2022-11-09T14:21:02.640Z,32.30
2022-11-09T14:23:32.335Z,32.00
2022-11-09T14:26:07.173Z,32.10
2022-11-09T14:28:34.995Z,32.10
2022-11-09T14:31:02.751Z,32.50
2022-11-09T14:33:34.606Z,32.60
2022-11-09T14:36:04.479Z,32.90
2022-11-09T14:38:37.428Z,33.50
2022-11-09T14:41:04.484Z,33.50
2022-11-09T14:43:41.303Z,33.40
2022-11-09T14:46:17.317Z,33.00
2022-11-09T14:48:54.856Z,33.10
2022-11-09T14:51:32.597Z,33.50
2022-11-09T14:54:01.748Z,33.00
2022-11-09T14:56:30.741Z,32.90
2022-11-09T14:58:58.216Z,33.00
2022-11-09T15:01:27.021Z,33.30
2022-11-09T15:04:17.684Z,33.40
2022-11-09T15:07:09.273Z,33.50
2022-11-09T15:09:45.214Z,33.30
2022-11-09T15:12:16.914Z,32.70
2022-11-09T15:14:49.949Z,32.80
2022-11-09T15:17:26.694Z,33.40
2022-11-09T15:20:03.411Z,33.10
2022-11-09T15:22:51.550Z,33.00
2022-11-09T15:25:23.455Z,32.90
2022-11-09T15:28:11.995Z,32.60
2022-11-09T15:30:48.656Z,32.80
2022-11-09T15:33:18.535Z,32.70
2022-11-09T15:36:01.801Z,32.10
2022-11-09T15:38:45.288Z,31.90
2022-11-09T15:41:18.185Z,31.90
2022-11-09T15:43:46.769Z,31.80
2022-11-09T15:46:22.159Z,31.60
2022-11-09T15:48:49.773Z,31.50
2022-11-09T15:51:16.833Z,32.10
2022-11-09T15:53:43.964Z,31.70
2022-11-09T15:56:22.986Z,31.90
2022-11-09T15:58:52.537Z,32.10
2022-11-09T16:01:19.634Z,32.00
2022-11-09T16:03:46.723Z,32.30
2022-11-09T16:06:19.115Z,32.30
2022-11-09T16:08:50.362Z,32.30
2022-11-09T16:11:17.915Z,32.20
2022-11-09T16:13:44.915Z,32.30
2022-11-09T16:16:13.743Z,32.10
2022-11-09T16:18:40.714Z,31.00
2022-11-09T16:21:16.041Z,30.70
2022-11-09T16:23:43.501Z,30.30
2022-11-09T16:26:13.177Z,30.30
2022-11-09T16:28:41.336Z,30.30
2022-11-09T16:31:08.365Z,30.70
2022-11-09T16:33:35.779Z,31.20
2022-11-09T16:36:15.196Z,30.80
2022-11-09T16:38:48.204Z,31.00
2022-11-09T16:41:16.617Z,30.70
2022-11-09T16:43:45.691Z,30.80
2022-11-09T16:46:18.362Z,30.80
2022-11-09T16:48:45.327Z,30.70
2022-11-09T16:51:12.289Z,30.90
2022-11-09T16:53:39.362Z,31.40
2022-11-09T16:56:07.568Z,31.20
2022-11-09T16:58:34.536Z,31.10
2022-11-09T17:01:11.363Z,30.90
2022-11-09T17:03:39.814Z,31.00
2022-11-09T17:06:11.249Z,31.30
2022-11-09T17:08:42.301Z,31.50
2022-11-09T17:11:11.418Z,31.10
2022-11-09T17:13:39.404Z,31.40
2022-11-09T17:16:09.582Z,31.40
2022-11-09T17:18:37.959Z,31.50
2022-11-09T17:21:11.174Z,31.50
2022-11-09T17:23:39.843Z,31.30
2022-11-09T17:26:08.401Z,31.30
2022-11-09T17:28:41.556Z,31.40
2022-11-09T17:31:15.356Z,31.30
2022-11-09T17:33:42.511Z,31.40
2022-11-09T17:36:14.204Z,31.20
2022-11-09T17:38:41.733Z,31.40
2022-11-09T17:41:11.781Z,30.50
2022-11-09T17:43:40.608Z,30.30
2022-11-09T17:46:20.092Z,30.50
2022-11-09T17:48:49.150Z,30.70
2022-11-09T17:51:17.998Z,30.60
2022-11-09T17:53:45.951Z,30.90
2022-11-09T17:56:13.193Z,30.80
2022-11-09T17:58:45.770Z,30.70
2022-11-09T18:01:17.865Z,30.60
2022-11-09T18:03:44.889Z,30.30
2022-11-09T18:06:14.425Z,30.20
2022-11-09T18:08:42.458Z,30.10
2022-11-09T18:11:10.052Z,30.00
2022-11-09T18:13:37.252Z,29.90
2022-11-09T18:16:19.883Z,30.20
2022-11-09T18:18:46.878Z,30.50
2022-11-09T18:21:19.270Z,30.00
2022-11-09T18:23:46.958Z,29.90
2022-11-09T18:26:14.660Z,30.00
2022-11-09T18:28:43.509Z,29.90
2022-11-09T18:31:12.484Z,30.30
2022-11-09T18:33:42.993Z,30.20
2022-11-09T18:36:18.692Z,30.20
2022-11-09T18:38:46.099Z,30.00
2022-11-09T18:41:15.707Z,30.30
2022-11-09T18:43:42.822Z,30.50
2022-11-09T18:46:12.480Z,30.20
2022-11-09T18:48:39.882Z,30.10
2022-11-09T18:51:08.374Z,30.80
2022-11-09T18:53:44.094Z,30.90
2022-11-09T18:56:22.756Z,30.50
2022-11-09T18:58:54.657Z,30.60
2022-11-09T19:01:23.388Z,30.50
2022-11-09T19:03:55.019Z,30.60
2022-11-09T19:06:25.082Z,30.40
2022-11-09T19:09:10.478Z,30.90
2022-11-09T19:11:37.770Z,31.00
2022-11-09T19:14:04.744Z,31.00
2022-11-09T19:16:31.732Z,31.00
2022-11-09T19:18:58.896Z,31.10
2022-11-09T19:21:37.179Z,30.30
2022-11-09T19:24:05.146Z,30.30
2022-11-09T19:26:32.339Z,29.80
2022-11-09T19:28:59.556Z,30.00
2022-11-09T19:31:26.956Z,29.70
2022-11-09T19:33:53.929Z,29.80
2022-11-09T19:36:30.344Z,29.60
2022-11-09T19:38:58.668Z,29.70
2022-11-09T19:41:26.151Z,29.30
2022-11-09T19:43:56.025Z,29.30
2022-11-09T19:46:23.329Z,28.80
2022-11-09T19:48:50.289Z,29.30
2022-11-09T19:51:18.370Z,29.60
2022-11-09T19:53:56.877Z,30.20
2022-11-09T19:56:25.276Z,30.40
2022-11-09T19:58:55.329Z,30.60
2022-11-09T20:01:23.624Z,30.70
2022-11-09T20:03:58.659Z,30.70
2022-11-09T20:06:26.512Z,30.30
2022-11-09T20:08:54.056Z,30.00
2022-11-09T20:11:42.116Z,30.10
2022-11-09T20:14:10.033Z,30.20
2022-11-09T20:16:38.197Z,30.00
2022-11-09T20:19:06.802Z,29.40
2022-11-09T20:21:33.764Z,29.40
2022-11-09T20:24:01.017Z,29.90
2022-11-09T20:26:28.061Z,29.80
2022-11-09T20:28:56.179Z,30.20
2022-11-09T20:31:23.681Z,30.10
2022-11-09T20:33:51.875Z,30.10
2022-11-09T20:36:19.594Z,30.30
2022-11-09T20:38:47.422Z,29.80
2022-11-09T20:41:15.202Z,29.60
2022-11-09T20:43:42.570Z,29.50
2022-11-09T20:46:19.192Z,30.50
2022-11-09T20:48:54.007Z,30.50
2022-11-09T20:51:22.767Z,30.50
2022-11-09T20:53:50.819Z,31.10
2022-11-09T20:56:19.273Z,31.10
2022-11-09T20:58:46.658Z,30.80
2022-11-09T21:01:26.210Z,31.00
2022-11-09T21:03:53.898Z,30.80
2022-11-09T21:06:21.621Z,30.10
2022-11-09T21:14:54.630Z,29.10
2022-11-09T21:17:21.660Z,30.20
2022-11-09T21:19:48.677Z,30.10
2022-11-09T21:22:15.766Z,30.10
2022-11-09T21:25:01.068Z,29.90
2022-11-09T21:27:48.165Z,29.90
2022-11-09T21:30:15.618Z,30.20
2022-11-09T21:32:42.660Z,30.60
2022-11-09T21:35:11.276Z,31.10
2022-11-09T21:37:38.373Z,30.70
2022-11-09T21:40:07.124Z,30.50
2022-11-09T21:42:34.120Z,29.90
2022-11-09T21:45:01.164Z,30.00
2022-11-09T21:47:28.137Z,30.20
2022-11-09T21:49:55.103Z,30.30
2022-11-09T21:52:22.900Z,29.90
2022-11-09T21:54:52.037Z,30.30
2022-11-09T21:57:19.033Z,30.60
2022-11-09T21:59:46.016Z,30.80
2022-11-09T22:02:13.115Z,31.10
2022-11-09T22:04:40.069Z,30.90
2022-11-09T22:07:07.069Z,30.60
2022-11-09T22:09:57.962Z,30.80
2022-11-09T22:12:39.874Z,31.00
2022-11-09T22:15:27.010Z,30.80
2022-11-09T22:17:55.061Z,30.90
2022-11-09T22:20:40.671Z,30.50
2022-11-09T22:23:08.636Z,29.80
2022-11-09T22:25:35.623Z,29.40
2022-11-09T22:28:02.855Z,28.80
2022-11-09T22:30:29.837Z,29.90
2022-11-09T22:32:58.259Z,30.00
2022-11-09T22:35:25.270Z,29.70
2022-11-09T22:37:52.256Z,29.40
2022-11-09T22:40:19.460Z,29.40
2022-11-09T22:42:46.429Z,29.80
2022-11-09T22:45:13.432Z,30.50
2022-11-09T22:47:40.549Z,31.40
2022-11-09T22:50:07.810Z,31.30
2022-11-09T22:52:34.787Z,31.60
2022-11-09T22:55:01.805Z,31.00
2022-11-09T22:57:28.751Z,30.80
2022-11-09T22:59:55.715Z,30.90
2022-11-09T23:02:22.722Z,31.30
2022-11-09T23:04:49.696Z,31.70
2022-11-09T23:07:16.775Z,31.70
2022-11-09T23:09:43.876Z,31.70
2022-11-09T23:12:10.870Z,31.80
2022-11-09T23:14:56.192Z,31.40
2022-11-09T23:17:41.790Z,31.40
2022-11-09T23:20:09.634Z,31.10
2022-11-09T23:22:39.378Z,31.30
2022-11-09T23:25:25.667Z,30.90
2022-11-09T23:27:52.869Z,30.50
2022-11-09T23:30:20.470Z,30.70
2022-11-09T23:32:47.548Z,30.30
2022-11-09T23:35:14.600Z,30.20
2022-11-09T23:37:41.811Z,30.40
2022-11-09T23:40:09.372Z,30.40
2022-11-09T23:42:36.490Z,30.20
2022-11-09T23:45:03.687Z,30.30
2022-11-09T23:47:30.677Z,30.40
2022-11-09T23:49:57.651Z,30.40
2022-11-09T23:52:24.633Z,30.20
2022-11-09T23:54:51.594Z,30.10
2022-11-09T23:57:18.559Z,29.30
2022-11-09T23:59:45.546Z,29.40
